Startpagina
METAR-TAF:

METAR-TAF

Vliegvelden :

Kingston, Jamaica

Norman Manley International Airport

breedte: 17-56N, lengte: 076-47W, hoogte: 3 m

Actueel weer

Dit bericht is 19 minuten geleden gemaakt, om 12:00 UTC
Wind 19 kt uit het oostzuidoosten
Temperatuur 29°C
Vochtigheid 70%
Druk 1013 hPa
Zicht 10 km of meer
Weinig wolken op 2200 ft

METAR: MKJP 251200Z 12019KT 9999 FEW022 29/23 Q1013

Tijdstip: 07:19 (12:19 UTC)

Verwachting

Dit bericht is 7 uur en het 4 minuten geleden gemaakt, om 05:15 UTC
Verwachting geldig van 25 om 06 UTC tot 26 om 06 UTC
Wind 16 kt uit het oostzuidoosten
Zicht 10 km of meer
Weinig wolken op 2200 ft
Wijzigt naar
van 25 om 14 UTC tot 25 om 16 UTC
Wind 26 kt uit het zuidoosten
Verspreide wolken op 1800 ft
Weinig wolken op 2000 ft, Cumulonimbus.
Wijzigt naar
van 26 om 00 UTC tot 26 om 02 UTC
Wind 16 kt uit het oostzuidoosten
Weinig wolken op 2200 ft

TAF: MKJP 250515Z 2506/2606 12016KT 9999 FEW022 BECMG 2514/2516 14026KT SCT018 FEW020CB BECMG 2600/2602 12016KT FEW022

Waarnemingen en weersverwachtingen van meer dan 4000 vliegvelden (METAR en TAF).

De beschikbare stations zijn de gele en rode punten op de kaart.

Ga met uw muis naar het station om de naam te zien.

Klik dan om waarnemingen en weersverwachtingen te zien.

kaart wijzigen: klik op de groene knoppen met een zwart kruis om in te zoomen, op de groene knop met een streepje om uit te zoomen of op de groene pijlen voor aangrenzende kaarten.


METAR-TAF: